createdAt,value
2023-03-28T00:01:17.199Z,99.90
2023-03-28T00:06:19.101Z,99.90
2023-03-28T00:11:21.926Z,99.90
2023-03-28T00:16:25.622Z,99.90
2023-03-28T00:21:29.233Z,99.90
2023-03-28T00:26:32.379Z,99.90
2023-03-28T00:31:35.130Z,99.90
2023-03-28T00:36:39.808Z,99.90
2023-03-28T00:41:42.774Z,99.90
2023-03-28T00:46:44.381Z,99.90
2023-03-28T00:51:48.440Z,99.90
2023-03-28T00:56:53.323Z,99.90
2023-03-28T01:01:55.457Z,99.90
2023-03-28T01:06:58.825Z,99.90
2023-03-28T01:12:00.733Z,99.90
2023-03-28T01:17:02.369Z,99.90
2023-03-28T01:22:06.532Z,99.90
2023-03-28T01:27:11.310Z,99.90
2023-03-28T01:32:27.970Z,99.90
2023-03-28T01:37:38.691Z,99.90
2023-03-28T01:42:52.535Z,99.90
2023-03-28T01:48:05.020Z,99.90
2023-03-28T01:53:12.880Z,99.90
2023-03-28T01:58:17.592Z,99.90
2023-03-28T02:03:22.770Z,99.90
2023-03-28T02:08:25.998Z,99.90
2023-03-28T02:13:29.911Z,99.90
2023-03-28T02:18:34.204Z,99.90
2023-03-28T02:23:38.389Z,99.90
2023-03-28T02:28:41.226Z,99.90
2023-03-28T02:33:47.402Z,99.90
2023-03-28T02:38:51.702Z,99.90
2023-03-28T02:43:53.328Z,99.90
2023-03-28T02:48:59.918Z,99.90
2023-03-28T02:54:13.602Z,99.90
2023-03-28T02:59:25.782Z,99.90
2023-03-28T03:04:27.346Z,99.90
2023-03-28T03:09:29.050Z,99.90
2023-03-28T03:14:30.638Z,99.90
2023-03-28T03:19:32.589Z,99.90
2023-03-28T03:24:34.601Z,99.90
2023-03-28T03:29:38.628Z,99.90
2023-03-28T03:34:42.123Z,99.90
2023-03-28T03:39:47.012Z,99.90
2023-03-28T03:44:48.608Z,99.90
2023-03-28T03:49:50.257Z,99.90
2023-03-28T03:54:51.827Z,99.90
2023-03-28T03:59:53.490Z,99.90
2023-03-28T04:04:57.057Z,99.90
2023-03-28T04:09:58.615Z,99.90
2023-03-28T04:15:00.387Z,99.90
2023-03-28T04:20:13.654Z,99.90
2023-03-28T04:25:17.753Z,99.90
2023-03-28T04:30:21.676Z,99.90
2023-03-28T04:35:24.183Z,99.90
2023-03-28T04:40:28.131Z,99.90
2023-03-28T04:45:29.853Z,99.90
2023-03-28T04:50:32.469Z,99.90
2023-03-28T04:55:35.040Z,99.90
2023-03-28T05:00:36.959Z,99.90
2023-03-28T05:05:38.598Z,99.90
2023-03-28T05:10:40.942Z,99.90
2023-03-28T05:15:43.348Z,99.90
2023-03-28T05:20:45.027Z,99.90
2023-03-28T05:25:50.631Z,99.90
2023-03-28T05:30:52.249Z,99.90
2023-03-28T05:35:54.031Z,99.90
2023-03-28T05:40:57.159Z,99.90
2023-03-28T05:45:58.928Z,99.90
2023-03-28T05:51:01.049Z,99.90
2023-03-28T05:56:03.114Z,99.90
2023-03-28T06:01:05.615Z,99.90
2023-03-28T06:06:07.390Z,99.90
2023-03-28T06:11:09.033Z,99.90
2023-03-28T06:16:10.852Z,99.90
2023-03-28T06:21:12.392Z,99.90
2023-03-28T06:26:14.083Z,99.90
2023-03-28T06:31:15.915Z,99.90
2023-03-28T06:36:17.524Z,99.90
2023-03-28T06:41:19.586Z,99.90
2023-03-28T06:46:21.471Z,99.90
2023-03-28T06:51:23.193Z,99.90
2023-03-28T06:56:24.833Z,99.90
2023-03-28T07:01:26.572Z,99.90
2023-03-28T07:06:28.276Z,99.90
2023-03-28T07:11:29.827Z,99.90
2023-03-28T07:16:31.501Z,99.90
2023-03-28T07:21:33.094Z,99.90
2023-03-28T07:26:34.717Z,99.90
2023-03-28T07:31:37.352Z,99.90
2023-03-28T07:36:39.745Z,99.90
2023-03-28T07:41:41.327Z,99.90
2023-03-28T07:46:43.289Z,99.90
2023-03-28T07:51:44.896Z,99.90
2023-03-28T07:56:46.754Z,99.90
2023-03-28T08:01:48.348Z,99.90
2023-03-28T08:06:52.113Z,99.90
2023-03-28T08:11:53.696Z,99.90
2023-03-28T08:16:55.312Z,99.90
2023-03-28T08:21:58.862Z,99.90
2023-03-28T08:27:00.817Z,99.90
2023-03-28T08:32:03.983Z,99.90
2023-03-28T08:37:05.579Z,99.90
2023-03-28T08:42:30.516Z,99.90
2023-03-28T08:47:32.903Z,99.90
2023-03-28T08:52:34.790Z,99.90
2023-03-28T08:57:38.042Z,99.90
2023-03-28T09:02:39.762Z,99.90
2023-03-28T09:08:00.337Z,99.90
2023-03-28T09:13:07.991Z,99.90
2023-03-28T09:18:16.333Z,99.90
2023-03-28T09:23:36.475Z,99.90
2023-03-28T09:28:51.262Z,99.90
2023-03-28T09:33:55.742Z,99.90
2023-03-28T09:39:08.758Z,99.90
2023-03-28T09:44:13.366Z,99.90
2023-03-28T09:49:16.654Z,99.90
2023-03-28T09:54:25.826Z,99.90
2023-03-28T09:59:29.135Z,99.90
2023-03-28T10:04:32.543Z,99.90
2023-03-28T10:09:34.202Z,99.90
2023-03-28T10:14:37.551Z,99.90
2023-03-28T10:19:43.846Z,99.90
2023-03-28T10:24:46.476Z,99.90
2023-03-28T10:29:48.133Z,99.90
2023-03-28T10:35:06.652Z,99.90
2023-03-28T10:40:17.443Z,99.90
2023-03-28T10:45:20.187Z,99.90
2023-03-28T10:50:28.241Z,99.90
2023-03-28T10:55:37.571Z,99.90
2023-03-28T11:01:02.810Z,99.90
2023-03-28T11:06:10.172Z,99.90
2023-03-28T11:11:14.851Z,99.90
2023-03-28T11:16:35.406Z,99.90
2023-03-28T11:21:43.119Z,99.90
2023-03-28T11:27:08.645Z,99.90
2023-03-28T11:32:19.341Z,99.90
2023-03-28T11:37:23.005Z,99.90
2023-03-28T11:42:28.974Z,99.90
2023-03-28T11:47:41.502Z,99.90
2023-03-28T11:52:48.247Z,99.90
2023-03-28T11:57:52.835Z,99.90
2023-03-28T12:03:06.540Z,99.90
2023-03-28T12:08:12.475Z,99.90
2023-03-28T12:13:19.820Z,99.90
2023-03-28T12:18:21.374Z,99.90
2023-03-28T12:23:37.730Z,98.10
2023-03-28T12:28:39.348Z,98.30
2023-03-28T12:33:47.018Z,95.80
2023-03-28T12:39:04.842Z,95.70
2023-03-28T12:44:24.711Z,92.70
2023-03-28T12:49:33.182Z,93.40
2023-03-28T12:54:36.194Z,94.10
2023-03-28T12:59:41.134Z,93.00
2023-03-28T13:04:42.729Z,91.50
2023-03-28T13:09:49.551Z,90.80
2023-03-28T13:15:10.022Z,91.00
2023-03-28T13:20:14.608Z,90.00
2023-03-28T13:25:21.222Z,90.70
2023-03-28T13:30:26.035Z,90.70
2023-03-28T13:35:39.181Z,91.80
2023-03-28T13:40:45.462Z,87.20
2023-03-28T13:45:47.803Z,89.90
2023-03-28T13:50:49.553Z,89.70
2023-03-28T13:56:06.467Z,91.20
2023-03-28T14:01:18.629Z,87.10
2023-03-28T14:06:23.426Z,88.00
2023-03-28T14:11:30.363Z,86.80
2023-03-28T14:16:32.906Z,86.50
2023-03-28T14:21:34.613Z,85.30
2023-03-28T14:26:36.972Z,87.00
2023-03-28T14:31:40.413Z,89.80
2023-03-28T14:37:00.935Z,86.40
2023-03-28T14:42:07.028Z,89.70
2023-03-28T14:47:13.352Z,87.00
2023-03-28T14:52:18.729Z,88.20
2023-03-28T14:57:20.423Z,89.00
2023-03-28T15:02:31.697Z,88.30
2023-03-28T15:07:34.713Z,88.80
2023-03-28T15:12:44.680Z,85.10
2023-03-28T15:17:46.615Z,82.80
2023-03-28T15:22:50.177Z,84.50
2023-03-28T15:27:57.839Z,85.20
2023-03-28T15:33:04.779Z,84.10
2023-03-28T15:38:08.244Z,85.00
2023-03-28T15:43:29.172Z,84.20
2023-03-28T15:48:34.848Z,84.30
2023-03-28T15:53:38.560Z,84.10
2023-03-28T15:58:41.453Z,84.40
2023-03-28T16:03:43.296Z,85.00
2023-03-28T16:08:46.297Z,86.30
2023-03-28T16:13:47.975Z,85.40
2023-03-28T16:18:49.884Z,84.50
2023-03-28T16:23:51.510Z,85.50
2023-03-28T16:28:53.129Z,84.30
2023-03-28T16:33:54.920Z,85.30
2023-03-28T16:38:56.524Z,84.30
2023-03-28T16:43:58.045Z,82.80
2023-03-28T16:48:59.598Z,82.40
2023-03-28T16:54:01.183Z,83.80
2023-03-28T16:59:07.687Z,84.50
2023-03-28T17:04:09.356Z,84.50
2023-03-28T17:09:11.354Z,83.80
2023-03-28T17:14:12.962Z,84.90
2023-03-28T17:19:18.032Z,86.30
2023-03-28T17:24:21.564Z,85.20
2023-03-28T17:29:23.883Z,87.70
2023-03-28T17:34:25.677Z,87.60
2023-03-28T17:39:28.546Z,88.60
2023-03-28T17:44:30.908Z,90.00
2023-03-28T17:49:32.493Z,90.40
2023-03-28T17:54:34.111Z,90.70
2023-03-28T17:59:36.166Z,91.00
2023-03-28T18:04:37.781Z,91.00
2023-03-28T18:09:39.575Z,91.00
2023-03-28T18:14:41.315Z,91.20
2023-03-28T18:19:42.955Z,91.50
2023-03-28T18:24:44.572Z,92.30
2023-03-28T18:29:47.424Z,92.40
2023-03-28T18:34:49.020Z,92.70
2023-03-28T18:39:50.574Z,93.50
2023-03-28T18:44:52.214Z,93.20
2023-03-28T18:49:53.778Z,93.70
2023-03-28T18:54:55.801Z,94.60
2023-03-28T18:59:57.562Z,95.80
2023-03-28T19:04:59.153Z,98.10
2023-03-28T19:10:00.755Z,99.90
2023-03-28T19:15:03.389Z,99.90
2023-03-28T19:20:07.613Z,99.90
2023-03-28T19:25:09.394Z,99.90
2023-03-28T19:30:11.600Z,99.90
2023-03-28T19:35:13.248Z,99.90
2023-03-28T19:40:17.049Z,99.90
2023-03-28T19:45:18.630Z,99.90
2023-03-28T19:50:20.229Z,99.90
2023-03-28T19:55:21.876Z,99.90
2023-03-28T20:00:23.587Z,99.90
2023-03-28T20:05:25.183Z,99.90
2023-03-28T20:10:26.762Z,99.90
2023-03-28T20:15:28.352Z,99.90
2023-03-28T20:20:30.153Z,99.90
2023-03-28T20:25:33.214Z,99.90
2023-03-28T20:30:34.793Z,99.90
2023-03-28T20:35:36.513Z,99.90
2023-03-28T20:40:41.464Z,99.90
2023-03-28T20:45:45.934Z,99.90
2023-03-28T20:50:47.632Z,99.90
2023-03-28T20:55:50.175Z,99.90
2023-03-28T21:00:57.079Z,99.90
2023-03-28T21:05:58.953Z,99.90
2023-03-28T21:11:00.908Z,99.90
2023-03-28T21:16:02.725Z,99.90
2023-03-28T21:21:06.119Z,99.90
2023-03-28T21:26:09.205Z,99.90
2023-03-28T21:31:13.224Z,99.90
2023-03-28T21:36:19.000Z,99.90
2023-03-28T21:41:22.336Z,99.90
2023-03-28T21:46:24.043Z,99.90
2023-03-28T21:51:26.028Z,99.90
2023-03-28T21:56:27.648Z,99.90
2023-03-28T22:01:29.336Z,99.90
2023-03-28T22:06:31.008Z,99.90
2023-03-28T22:11:35.007Z,99.90
2023-03-28T22:16:37.805Z,99.90
2023-03-28T22:21:39.394Z,99.90
2023-03-28T22:26:41.533Z,99.90
2023-03-28T22:31:43.299Z,99.90
2023-03-28T22:36:44.979Z,99.90
2023-03-28T22:41:46.880Z,99.90
2023-03-28T22:46:49.558Z,99.90
2023-03-28T22:51:56.145Z,99.90
2023-03-28T22:56:57.871Z,99.90
2023-03-28T23:01:59.579Z,99.90
2023-03-28T23:07:01.175Z,99.90
2023-03-28T23:12:02.722Z,99.90
2023-03-28T23:17:04.375Z,99.90
2023-03-28T23:22:07.424Z,99.90
2023-03-28T23:27:09.067Z,99.90
2023-03-28T23:32:10.728Z,99.90
2023-03-28T23:37:13.948Z,99.90
2023-03-28T23:42:15.727Z,99.90
2023-03-28T23:47:18.074Z,99.90
2023-03-28T23:52:19.654Z,99.90
2023-03-28T23:57:24.897Z,99.90
